Terminal Aerodrome Forecast
Issued by NWS

Home | Current Version | Previous Version | Text Only | Print | Product List | Glossary On
Versions: 1 2 3 4 5 6 7 8 9 10 11 12 13 14 15 16
000
FTUS44 KLZK 020800 AAA
TAFLIT
TAF AMD
KLIT 020853Z 0209/0306 05005KT 5SM BR VCSH OVC012
     FM021600 08008KT P6SM OVC007
     FM022100 12007KT P6SM OVC010
     FM030100 14005KT 4SM BR OVC007=

USA.gov is the U.S. government's official web portal to all federal, state and local government web resources and services.